createdAt,value
2022-11-22T00:01:29.396Z,11.02
2022-11-22T00:03:55.889Z,9.45
2022-11-22T00:06:22.184Z,11.32
2022-11-22T00:08:48.503Z,10.13
2022-11-22T00:11:14.851Z,11.13
2022-11-22T00:13:41.168Z,10.45
2022-11-22T00:16:07.544Z,9.45
2022-11-22T00:18:33.957Z,10.38
2022-11-22T00:21:07.879Z,14.02
2022-11-22T00:23:34.767Z,11.73
2022-11-22T00:26:01.139Z,11.55
2022-11-22T00:28:27.541Z,10.93
2022-11-22T00:30:53.867Z,10.73
2022-11-22T00:33:20.159Z,11.18
2022-11-22T00:35:46.909Z,9.75
2022-11-22T00:38:13.244Z,11.60
2022-11-22T00:40:39.566Z,9.30
2022-11-22T00:43:05.895Z,10.80
2022-11-22T00:45:32.268Z,11.13
2022-11-22T00:47:58.669Z,10.65
2022-11-22T00:50:24.985Z,8.02
2022-11-22T00:52:51.291Z,8.77
2022-11-22T00:55:17.618Z,9.57
2022-11-22T00:57:44.010Z,7.70
2022-11-22T01:00:10.885Z,11.25
2022-11-22T01:02:37.254Z,9.43
2022-11-22T01:05:03.924Z,9.32
2022-11-22T01:07:30.477Z,9.43
2022-11-22T01:09:57.310Z,9.93
2022-11-22T01:12:23.636Z,11.05
2022-11-22T01:14:50.177Z,11.40
2022-11-22T01:17:16.648Z,7.50
2022-11-22T01:19:43.039Z,10.30
2022-11-22T01:22:09.406Z,9.45
2022-11-22T01:24:35.722Z,8.05
2022-11-22T01:27:02.035Z,8.07
2022-11-22T01:29:28.786Z,9.98
2022-11-22T01:31:55.274Z,11.15
2022-11-22T01:34:21.638Z,10.88
2022-11-22T01:36:47.970Z,7.97
2022-11-22T01:39:15.103Z,7.60
2022-11-22T01:41:41.484Z,7.55
2022-11-22T01:44:24.766Z,8.60
2022-11-22T01:46:59.590Z,10.27
2022-11-22T01:49:35.656Z,11.40
2022-11-22T01:52:14.031Z,8.77
2022-11-22T01:54:44.122Z,8.73
2022-11-22T01:57:15.159Z,11.40
2022-11-22T01:59:47.280Z,7.70
2022-11-22T02:02:13.616Z,7.25
2022-11-22T02:04:41.629Z,10.82
2022-11-22T02:07:15.402Z,5.95
2022-11-22T02:09:43.262Z,7.78
2022-11-22T02:12:12.003Z,7.65
2022-11-22T02:14:38.872Z,8.57
2022-11-22T02:17:05.239Z,8.35
2022-11-22T02:19:44.282Z,6.28
2022-11-22T02:22:38.764Z,7.63
2022-11-22T02:25:22.167Z,6.65
2022-11-22T02:27:50.153Z,9.90
2022-11-22T02:30:17.405Z,7.00
2022-11-22T02:32:44.581Z,6.55
2022-11-22T02:35:20.456Z,5.90
2022-11-22T02:40:16.764Z,5.55
2022-11-22T02:42:48.725Z,5.25
2022-11-22T02:45:15.119Z,7.10
2022-11-22T02:47:41.486Z,8.23
2022-11-22T02:50:08.225Z,7.65
2022-11-22T02:52:34.603Z,6.35
2022-11-22T02:55:00.963Z,6.90
2022-11-22T02:57:27.255Z,8.55
2022-11-22T02:59:53.541Z,6.97
2022-11-22T03:02:19.931Z,8.30
2022-11-22T03:04:46.345Z,5.22
2022-11-22T03:07:12.730Z,7.63
2022-11-22T03:09:39.246Z,6.70
2022-11-22T03:12:05.745Z,5.45
2022-11-22T03:14:32.045Z,5.47
2022-11-22T03:16:58.384Z,8.18
2022-11-22T03:19:24.715Z,6.13
2022-11-22T03:21:51.356Z,6.18
2022-11-22T03:24:19.281Z,6.82
2022-11-22T03:26:49.870Z,6.00
2022-11-22T03:29:17.570Z,5.60
2022-11-22T03:31:43.907Z,5.82
2022-11-22T03:34:12.489Z,4.50
2022-11-22T03:36:38.817Z,6.28
2022-11-22T03:39:05.166Z,6.88
2022-11-22T03:41:31.480Z,6.93
2022-11-22T03:43:57.809Z,4.50
2022-11-22T03:46:24.229Z,6.05
2022-11-22T03:48:50.590Z,6.18
2022-11-22T03:51:17.245Z,8.50
2022-11-22T03:53:43.696Z,8.25
2022-11-22T03:56:10.193Z,5.88
2022-11-22T03:58:36.638Z,5.75
2022-11-22T04:01:03.134Z,5.57
2022-11-22T04:03:29.935Z,7.28
2022-11-22T04:05:56.872Z,4.10
2022-11-22T04:08:23.324Z,5.50
2022-11-22T04:10:50.592Z,6.03
2022-11-22T04:13:17.202Z,4.97
2022-11-22T04:15:43.530Z,6.30
2022-11-22T04:18:14.012Z,6.22
2022-11-22T04:20:58.960Z,6.00
2022-11-22T04:23:32.243Z,5.63
2022-11-22T04:26:00.204Z,5.73
2022-11-22T04:28:46.994Z,5.10
2022-11-22T04:31:32.692Z,6.47
2022-11-22T04:33:59.019Z,5.22
2022-11-22T04:36:25.335Z,4.93
2022-11-22T04:38:52.117Z,5.03
2022-11-22T04:41:18.622Z,4.35
2022-11-22T04:44:03.814Z,5.63
2022-11-22T04:46:31.463Z,6.32
2022-11-22T04:48:57.840Z,4.80
2022-11-22T04:51:42.775Z,4.57
2022-11-22T04:54:09.108Z,4.60
2022-11-22T04:56:35.422Z,6.05
2022-11-22T04:59:01.778Z,5.05
2022-11-22T05:01:28.105Z,4.70
2022-11-22T05:03:54.506Z,8.35
2022-11-22T05:06:20.851Z,4.93
2022-11-22T05:08:47.150Z,4.63
2022-11-22T05:11:13.583Z,5.95
2022-11-22T05:13:42.037Z,5.90
2022-11-22T05:16:11.643Z,4.95
2022-11-22T05:18:38.450Z,5.65
2022-11-22T05:21:13.870Z,4.55
2022-11-22T05:23:55.524Z,8.25
2022-11-22T05:26:29.028Z,5.57
2022-11-22T05:28:57.931Z,6.30
2022-11-22T05:31:27.146Z,4.93
2022-11-22T05:33:56.179Z,4.82
2022-11-22T05:36:23.745Z,6.35
2022-11-22T05:38:50.632Z,4.85
2022-11-22T05:41:17.968Z,8.30
2022-11-22T05:43:44.445Z,6.57
2022-11-22T05:46:14.263Z,7.25
2022-11-22T05:48:45.472Z,6.88
2022-11-22T05:51:13.885Z,6.90
2022-11-22T05:53:42.174Z,5.95
2022-11-22T05:56:13.897Z,5.97
2022-11-22T05:58:40.631Z,9.02
2022-11-22T06:01:09.771Z,8.85
2022-11-22T06:03:36.466Z,5.40
2022-11-22T06:06:04.122Z,6.00
2022-11-22T06:08:31.901Z,6.55
2022-11-22T06:11:06.615Z,6.00
2022-11-22T06:13:40.595Z,6.30
2022-11-22T06:16:08.752Z,5.80
2022-11-22T06:18:35.826Z,5.68
2022-11-22T06:21:05.504Z,5.80
2022-11-22T06:23:31.894Z,6.25
2022-11-22T06:25:59.822Z,5.60
2022-11-22T06:28:30.372Z,7.65
2022-11-22T06:31:04.787Z,7.47
2022-11-22T06:33:31.451Z,7.65
2022-11-22T06:36:11.945Z,4.63
2022-11-22T06:38:39.689Z,5.38
2022-11-22T06:41:08.737Z,5.68
2022-11-22T06:43:36.293Z,6.60
2022-11-22T06:46:04.472Z,7.45
2022-11-22T06:48:33.190Z,6.68
2022-11-22T06:51:04.429Z,7.65
2022-11-22T06:53:46.990Z,7.47
2022-11-22T06:56:20.542Z,9.57
2022-11-22T06:58:48.639Z,7.32
2022-11-22T07:01:23.399Z,6.85
2022-11-22T07:03:50.780Z,9.00
2022-11-22T07:06:19.063Z,10.35
2022-11-22T07:08:46.335Z,11.10
2022-11-22T07:11:15.446Z,8.27
2022-11-22T07:13:42.035Z,7.53
2022-11-22T07:16:11.302Z,10.80
2022-11-22T07:18:37.795Z,9.15
2022-11-22T07:21:13.216Z,8.18
2022-11-22T07:26:07.079Z,4.47
2022-11-22T07:28:33.489Z,4.75
2022-11-22T07:31:01.680Z,6.10
2022-11-22T07:33:28.888Z,5.82
2022-11-22T07:35:55.657Z,6.03
2022-11-22T07:38:22.041Z,7.35
2022-11-22T07:40:48.406Z,6.72
2022-11-22T07:43:15.197Z,8.00
2022-11-22T07:45:41.508Z,5.97
2022-11-22T07:48:07.878Z,9.27
2022-11-22T07:50:34.601Z,8.48
2022-11-22T07:53:01.185Z,9.07
2022-11-22T07:55:27.967Z,16.08
2022-11-22T07:57:54.396Z,10.68
2022-11-22T08:00:21.300Z,9.57
2022-11-22T08:02:47.652Z,7.63
2022-11-22T08:05:14.079Z,13.07
2022-11-22T08:07:45.981Z,8.93
2022-11-22T08:10:12.652Z,10.35
2022-11-22T08:12:39.096Z,7.68
2022-11-22T08:15:05.933Z,8.30
2022-11-22T08:17:32.321Z,8.63
2022-11-22T08:19:58.693Z,9.63
2022-11-22T08:22:25.082Z,11.43
2022-11-22T08:24:51.435Z,9.82
2022-11-22T08:27:17.791Z,12.48
2022-11-22T08:29:44.129Z,14.98
2022-11-22T08:32:10.438Z,9.10
2022-11-22T08:34:38.395Z,7.90
2022-11-22T08:37:05.557Z,10.13
2022-11-22T08:39:32.161Z,12.70
2022-11-22T08:41:58.554Z,10.77
2022-11-22T08:44:24.983Z,11.13
2022-11-22T08:46:51.295Z,11.40
2022-11-22T08:49:17.630Z,8.77
2022-11-22T08:51:45.110Z,13.52
2022-11-22T08:54:12.117Z,11.02
2022-11-22T08:56:38.481Z,10.57
2022-11-22T08:59:05.127Z,8.80
2022-11-22T09:01:31.871Z,10.48
2022-11-22T09:03:58.272Z,10.07
2022-11-22T09:11:57.174Z,10.32
2022-11-22T09:14:23.497Z,11.93
2022-11-22T09:16:49.936Z,9.07
2022-11-22T09:19:16.387Z,8.77
2022-11-22T09:21:42.764Z,7.38
2022-11-22T09:24:09.123Z,11.57
2022-11-22T09:26:35.442Z,12.98
2022-11-22T09:29:01.753Z,9.93
2022-11-22T09:31:28.092Z,15.10
2022-11-22T09:33:54.437Z,10.65
2022-11-22T09:36:28.304Z,12.40
2022-11-22T09:38:56.071Z,10.65
2022-11-22T09:41:25.095Z,9.48
2022-11-22T09:44:05.501Z,14.95
2022-11-22T09:46:56.272Z,7.43
2022-11-22T09:49:29.408Z,10.65
2022-11-22T09:52:01.962Z,10.07
2022-11-22T09:54:35.664Z,11.32
2022-11-22T09:57:05.683Z,7.93
2022-11-22T09:59:36.542Z,5.88
2022-11-22T10:02:19.296Z,8.98
2022-11-22T10:04:58.674Z,10.07
2022-11-22T10:07:43.917Z,9.70
2022-11-22T10:10:18.149Z,10.13
2022-11-22T10:13:17.036Z,9.23
2022-11-22T10:16:03.840Z,10.98
2022-11-22T10:18:41.027Z,9.60
2022-11-22T10:21:12.682Z,8.07
2022-11-22T10:23:41.777Z,8.98
2022-11-22T10:26:28.524Z,12.35
2022-11-22T10:29:10.222Z,8.05
2022-11-22T10:31:41.191Z,11.45
2022-11-22T10:34:31.561Z,6.90
2022-11-22T10:37:17.327Z,8.63
2022-11-22T10:40:02.589Z,11.60
2022-11-22T10:42:50.851Z,10.68
2022-11-22T10:45:34.427Z,7.90
2022-11-22T10:48:16.465Z,11.20
2022-11-22T10:50:53.820Z,7.55
2022-11-22T10:53:38.869Z,7.22
2022-11-22T10:56:25.495Z,8.65
2022-11-22T10:59:04.432Z,12.57
2022-11-22T11:01:58.190Z,6.43
2022-11-22T11:04:29.562Z,5.13
2022-11-22T11:07:15.024Z,7.57
2022-11-22T11:10:27.845Z,10.68
2022-11-22T11:13:04.778Z,6.85
2022-11-22T11:15:40.452Z,6.82
2022-11-22T11:18:15.012Z,9.45
2022-11-22T11:20:42.844Z,4.93
2022-11-22T11:23:15.109Z,9.18
2022-11-22T11:25:44.200Z,7.43
2022-11-22T11:28:22.638Z,7.20
2022-11-22T11:30:53.805Z,7.45
2022-11-22T11:33:30.624Z,10.38
2022-11-22T11:36:05.309Z,5.85
2022-11-22T11:38:36.128Z,7.25
2022-11-22T11:41:21.617Z,6.75
2022-11-22T11:43:49.296Z,6.40
2022-11-22T11:46:19.822Z,6.40
2022-11-22T11:48:47.228Z,8.00
2022-11-22T11:51:15.634Z,5.53
2022-11-22T11:53:51.425Z,5.57
2022-11-22T11:56:41.791Z,3.65
2022-11-22T11:59:14.410Z,7.18
2022-11-22T12:01:49.152Z,4.18
2022-11-22T12:04:25.412Z,5.45
2022-11-22T12:07:03.506Z,5.63
2022-11-22T12:09:42.677Z,5.68
2022-11-22T12:12:30.882Z,6.30
2022-11-22T12:15:21.143Z,5.47
2022-11-22T12:17:54.378Z,8.25
2022-11-22T12:20:30.239Z,7.13
2022-11-22T12:25:40.303Z,3.95
2022-11-22T12:28:33.368Z,5.03
2022-11-22T12:31:08.230Z,4.88
2022-11-22T12:33:41.757Z,4.68
2022-11-22T12:36:22.670Z,4.95
2022-11-22T12:38:52.588Z,4.97
2022-11-22T12:41:22.841Z,4.50
2022-11-22T12:43:59.672Z,4.45
2022-11-22T12:46:33.239Z,5.05
2022-11-22T12:49:13.488Z,4.07
2022-11-22T12:51:56.209Z,5.95
2022-11-22T12:54:30.601Z,4.40
2022-11-22T12:57:02.289Z,4.28
2022-11-22T12:59:58.384Z,8.43
2022-11-22T13:02:24.694Z,5.53
2022-11-22T13:04:58.337Z,5.40
2022-11-22T13:07:36.738Z,6.00
2022-11-22T13:10:09.091Z,5.53
2022-11-22T13:12:38.717Z,6.28
2022-11-22T13:15:05.604Z,7.18
2022-11-22T13:17:38.504Z,6.72
2022-11-22T13:20:21.937Z,4.40
2022-11-22T13:23:02.392Z,4.13
2022-11-22T13:25:56.764Z,3.78
2022-11-22T13:28:27.992Z,3.05
2022-11-22T13:31:12.767Z,5.65
2022-11-22T13:33:43.362Z,4.10
2022-11-22T13:36:37.964Z,4.20
2022-11-22T13:39:20.328Z,3.35
2022-11-22T13:41:53.738Z,6.72
2022-11-22T13:44:23.110Z,4.70
2022-11-22T13:46:49.347Z,4.32
2022-11-22T13:49:35.261Z,5.07
2022-11-22T13:52:30.406Z,3.72
2022-11-22T13:54:56.831Z,4.00
2022-11-22T13:57:42.041Z,3.20
2022-11-22T14:00:11.556Z,4.78
2022-11-22T14:02:39.703Z,5.07
2022-11-22T14:05:34.371Z,4.97
2022-11-22T14:08:06.244Z,4.13
2022-11-22T14:10:55.906Z,6.80
2022-11-22T14:13:38.963Z,3.55
2022-11-22T14:16:18.398Z,6.25
2022-11-22T14:19:02.425Z,7.25
2022-11-22T14:21:47.460Z,3.78
2022-11-22T14:24:32.699Z,6.05
2022-11-22T14:27:02.582Z,5.90
2022-11-22T14:29:38.240Z,6.82
2022-11-22T14:32:20.446Z,5.55
2022-11-22T14:35:04.935Z,7.82
2022-11-22T14:37:34.233Z,5.80
2022-11-22T14:40:06.618Z,6.25
2022-11-22T14:42:36.199Z,3.50
2022-11-22T14:45:10.119Z,4.70
2022-11-22T14:47:37.185Z,3.45
2022-11-22T14:50:13.317Z,4.93
2022-11-22T14:52:42.959Z,5.70
2022-11-22T14:55:16.113Z,3.95
2022-11-22T14:57:43.585Z,5.47
2022-11-22T15:00:15.333Z,4.00
2022-11-22T15:03:12.403Z,3.22
2022-11-22T15:09:16.115Z,5.15
2022-11-22T15:09:19.372Z,2.67
2022-11-22T15:12:10.483Z,3.60
2022-11-22T15:14:55.045Z,3.65
2022-11-22T15:57:33.525Z,4.07
2022-11-22T16:00:00.985Z,6.20
2022-11-22T16:02:30.834Z,3.33
2022-11-22T16:06:06.459Z,2.25
2022-11-22T16:07:49.442Z,2.53
2022-11-22T16:10:22.728Z,2.83
2022-11-22T16:12:50.842Z,3.60
2022-11-22T16:15:36.338Z,4.30
2022-11-22T16:18:14.561Z,5.75
2022-11-22T16:20:43.110Z,8.68
2022-11-22T16:23:09.396Z,4.75
2022-11-22T16:25:38.322Z,4.50
2022-11-22T16:28:23.009Z,7.88
2022-11-22T16:30:49.496Z,6.28
2022-11-22T16:33:15.846Z,12.85
2022-11-22T16:35:42.169Z,7.13
2022-11-22T16:38:09.050Z,7.03
2022-11-22T16:40:43.146Z,4.25
2022-11-22T16:43:22.191Z,4.05
2022-11-22T16:45:49.477Z,4.20
2022-11-22T16:48:34.112Z,11.77
2022-11-22T16:51:06.421Z,5.30
2022-11-22T16:53:45.318Z,5.20
2022-11-22T16:56:21.452Z,4.00
2022-11-22T16:58:48.988Z,4.45
2022-11-22T17:01:18.930Z,2.10
2022-11-22T17:03:47.081Z,5.82
2022-11-22T17:06:18.774Z,3.17
2022-11-22T17:08:46.828Z,4.05
2022-11-22T17:11:16.518Z,5.10
2022-11-22T17:13:43.279Z,6.72
2022-11-22T17:16:11.313Z,2.75
2022-11-22T17:18:38.732Z,4.20
2022-11-22T17:21:26.359Z,4.60
2022-11-22T17:23:59.094Z,4.35
2022-11-22T17:26:26.369Z,3.88
2022-11-22T17:28:52.718Z,2.03
2022-11-22T17:31:21.989Z,2.50
2022-11-22T17:33:53.370Z,1.65
2022-11-22T17:36:26.437Z,2.70
2022-11-22T17:38:52.927Z,1.60
2022-11-22T17:41:19.260Z,3.28
2022-11-22T17:43:46.003Z,4.10
2022-11-22T17:46:12.644Z,3.97
2022-11-22T17:48:39.080Z,4.47
2022-11-22T17:51:10.148Z,3.65
2022-11-22T17:53:36.751Z,4.55
2022-11-22T17:56:10.440Z,3.95
2022-11-22T17:58:37.973Z,4.95
2022-11-22T18:01:07.204Z,4.78
2022-11-22T18:03:34.151Z,2.58
2022-11-22T18:06:02.189Z,3.50
2022-11-22T18:08:28.851Z,5.43
2022-11-22T18:10:56.484Z,4.80
2022-11-22T18:13:23.118Z,2.72
2022-11-22T18:15:54.592Z,1.92
2022-11-22T18:18:54.544Z,4.93
2022-11-22T18:21:17.162Z,2.53
2022-11-22T18:23:44.204Z,3.60
2022-11-22T18:29:32.616Z,5.70
2022-11-22T18:34:32.640Z,3.05
2022-11-22T18:37:03.771Z,3.30
2022-11-22T18:39:36.543Z,4.25
2022-11-22T18:42:05.674Z,2.90
2022-11-22T18:44:32.689Z,3.40
2022-11-22T18:46:58.993Z,2.90
2022-11-22T18:49:25.385Z,3.67
2022-11-22T18:51:51.856Z,4.80
2022-11-22T18:54:18.548Z,3.90
2022-11-22T18:56:44.899Z,3.38
2022-11-22T18:59:12.719Z,4.18
2022-11-22T19:01:39.869Z,4.43
2022-11-22T19:04:06.580Z,4.85
2022-11-22T19:06:32.928Z,3.70
2022-11-22T19:08:59.323Z,4.90
2022-11-22T19:11:28.303Z,4.85
2022-11-22T19:13:54.622Z,4.00
2022-11-22T19:16:22.602Z,5.47
2022-11-22T19:18:50.019Z,2.67
2022-11-22T19:21:21.685Z,3.55
2022-11-22T19:23:49.928Z,5.72
2022-11-22T19:26:20.521Z,2.60
2022-11-22T19:28:52.104Z,4.30
2022-11-22T19:31:20.740Z,3.75
2022-11-22T19:33:47.425Z,4.78
2022-11-22T19:36:23.489Z,2.42
2022-11-22T19:38:52.870Z,9.27
2022-11-22T19:41:21.821Z,4.80
2022-11-22T19:43:49.381Z,3.95
2022-11-22T19:46:16.340Z,4.07
2022-11-22T19:48:46.876Z,4.07
2022-11-22T19:51:15.141Z,4.38
2022-11-22T19:53:44.723Z,2.63
2022-11-22T19:56:16.468Z,3.70
2022-11-22T19:58:44.749Z,4.72
2022-11-22T20:01:15.402Z,4.30
2022-11-22T20:03:43.710Z,3.92
2022-11-22T20:06:12.380Z,2.67
2022-11-22T20:08:39.049Z,3.25
2022-11-22T20:11:11.151Z,3.33
2022-11-22T20:13:39.757Z,2.53
2022-11-22T20:16:24.570Z,3.65
2022-11-22T20:18:54.645Z,4.00
2022-11-22T20:21:22.485Z,4.03
2022-11-22T20:23:50.185Z,6.15
2022-11-22T20:26:17.550Z,3.72
2022-11-22T20:28:45.101Z,3.47
2022-11-22T20:31:17.081Z,2.85
2022-11-22T20:33:46.227Z,4.32
2022-11-22T20:36:21.833Z,2.45
2022-11-22T20:38:49.917Z,3.08
2022-11-22T20:41:18.404Z,2.42
2022-11-22T20:43:45.398Z,2.78
2022-11-22T20:46:14.335Z,1.95
2022-11-22T20:48:43.297Z,3.78
2022-11-22T20:51:12.525Z,2.53
2022-11-22T20:53:39.070Z,2.25
2022-11-22T20:56:05.713Z,4.35
2022-11-22T20:58:32.512Z,2.75
2022-11-22T21:00:59.411Z,1.80
2022-11-22T21:03:27.989Z,3.40
2022-11-22T21:05:55.566Z,2.90
2022-11-22T21:08:22.990Z,2.78
2022-11-22T21:10:49.649Z,2.72
2022-11-22T21:13:16.319Z,2.50
2022-11-22T21:15:42.652Z,2.22
2022-11-22T21:18:25.312Z,2.42
2022-11-22T21:20:52.250Z,1.85
2022-11-22T21:23:18.593Z,1.80
2022-11-22T21:25:46.012Z,2.35
2022-11-22T21:28:12.336Z,1.65
2022-11-22T21:30:38.681Z,3.00
2022-11-22T21:33:05.074Z,2.88
2022-11-22T21:35:31.387Z,2.03
2022-11-22T21:37:57.711Z,2.17
2022-11-22T21:40:24.112Z,1.88
2022-11-22T21:42:50.500Z,2.58
2022-11-22T21:45:16.833Z,3.13
2022-11-22T21:47:43.155Z,2.47
2022-11-22T21:50:11.854Z,2.20
2022-11-22T21:52:38.383Z,2.70
2022-11-22T21:55:05.114Z,2.15
2022-11-22T21:57:31.551Z,3.47
2022-11-22T21:59:57.848Z,2.53
2022-11-22T22:02:24.218Z,2.20
2022-11-22T22:04:50.592Z,3.95
2022-11-22T22:07:30.122Z,4.30
2022-11-22T22:12:30.560Z,2.30
2022-11-22T22:14:57.078Z,2.53
2022-11-22T22:17:23.526Z,2.38
2022-11-22T22:19:50.968Z,2.33
2022-11-22T22:22:17.267Z,3.25
2022-11-22T22:24:43.765Z,2.90
2022-11-22T22:27:10.947Z,2.13
2022-11-22T22:29:37.265Z,3.40
2022-11-22T22:32:09.091Z,2.35
2022-11-22T22:34:36.883Z,2.35
2022-11-22T22:37:03.337Z,2.63
2022-11-22T22:39:29.822Z,2.28
2022-11-22T22:41:56.353Z,3.60
2022-11-22T22:44:22.822Z,2.80
2022-11-22T22:46:49.154Z,1.98
2022-11-22T22:49:15.496Z,3.00
2022-11-22T22:51:41.854Z,2.10
2022-11-22T22:54:09.968Z,2.95
2022-11-22T22:56:36.274Z,2.58
2022-11-22T22:59:05.035Z,1.55
2022-11-22T23:01:32.021Z,2.60
2022-11-22T23:04:00.774Z,1.90
2022-11-22T23:06:30.396Z,1.90
2022-11-22T23:08:57.228Z,1.95
2022-11-22T23:11:45.983Z,1.63
2022-11-22T23:14:13.756Z,4.45
2022-11-22T23:16:40.392Z,2.17
2022-11-22T23:19:07.048Z,1.98
2022-11-22T23:21:34.027Z,3.03
2022-11-22T23:24:00.426Z,1.65
2022-11-22T23:26:26.854Z,2.85
2022-11-22T23:28:53.447Z,2.05
2022-11-22T23:31:20.458Z,2.65
2022-11-22T23:33:46.912Z,2.50
2022-11-22T23:36:16.064Z,1.25
2022-11-22T23:38:42.988Z,1.80
2022-11-22T23:41:14.809Z,1.88
2022-11-22T23:43:44.315Z,2.50
2022-11-22T23:46:17.880Z,2.60
2022-11-22T23:48:54.743Z,2.30
2022-11-22T23:51:21.511Z,2.25
2022-11-22T23:53:47.867Z,4.22
2022-11-22T23:56:21.581Z,2.63
2022-11-22T23:58:48.437Z,1.88
